Aviation Digital Data Service (ADDS)

Output produced by METARs form (2356 UTC 30 September 2014)
found at http://aviationweather.gov/adds/metars/
 
KRWI 302325Z 0100/0124 VRB03KT P6SM SKC 
     FM010300 VRB02KT 4SM BR SCT002 
     FM010600 VRB02KT 1SM BR SCT002 
     TEMPO 0109/0113 00000KT 1/4SM FG VV002 
     FM011400 14004KT P6SM FEW025 SCT250